sensor_id;sensor_type;location;lat;lon;timestamp;P1;durP1;ratioP1;P2;durP2;ratioP2
42726;SDS011;28372;56.832;60.658;2023-05-10T00:01:02;36.40;;;16.95;;
42726;SDS011;28372;56.832;60.658;2023-05-10T00:03:30;36.40;;;17.00;;
42726;SDS011;28372;56.832;60.658;2023-05-10T00:05:58;38.42;;;17.50;;
42726;SDS011;28372;56.832;60.658;2023-05-10T00:08:25;34.75;;;17.73;;
42726;SDS011;28372;56.832;60.658;2023-05-10T00:10:53;38.05;;;17.48;;
42726;SDS011;28372;56.832;60.658;2023-05-10T00:13:20;44.55;;;22.52;;
42726;SDS011;28372;56.832;60.658;2023-05-10T00:15:48;42.78;;;19.67;;
42726;SDS011;28372;56.832;60.658;2023-05-10T00:18:17;38.88;;;18.23;;
42726;SDS011;28372;56.832;60.658;2023-05-10T00:20:45;40.67;;;18.30;;
42726;SDS011;28372;56.832;60.658;2023-05-10T00:23:13;38.95;;;18.20;;
42726;SDS011;28372;56.832;60.658;2023-05-10T00:25:40;35.28;;;16.80;;
42726;SDS011;28372;56.832;60.658;2023-05-10T00:28:08;34.65;;;16.73;;
42726;SDS011;28372;56.832;60.658;2023-05-10T00:30:36;33.42;;;16.15;;
42726;SDS011;28372;56.832;60.658;2023-05-10T00:33:04;35.20;;;16.83;;
42726;SDS011;28372;56.832;60.658;2023-05-10T00:35:31;36.45;;;18.30;;
42726;SDS011;28372;56.832;60.658;2023-05-10T00:37:59;35.85;;;17.75;;
42726;SDS011;28372;56.832;60.658;2023-05-10T00:40:27;34.78;;;17.20;;
42726;SDS011;28372;56.832;60.658;2023-05-10T00:42:59;38.88;;;19.25;;
42726;SDS011;28372;56.832;60.658;2023-05-10T00:45:29;38.83;;;19.95;;
42726;SDS011;28372;56.832;60.658;2023-05-10T00:47:58;40.22;;;20.15;;
42726;SDS011;28372;56.832;60.658;2023-05-10T00:50:28;43.33;;;19.73;;
42726;SDS011;28372;56.832;60.658;2023-05-10T00:52:56;40.45;;;19.80;;
42726;SDS011;28372;56.832;60.658;2023-05-10T00:55:25;44.38;;;19.42;;
42726;SDS011;28372;56.832;60.658;2023-05-10T00:57:53;43.03;;;19.75;;
42726;SDS011;28372;56.832;60.658;2023-05-10T01:00:21;42.75;;;20.15;;
42726;SDS011;28372;56.832;60.658;2023-05-10T01:02:49;38.88;;;20.40;;
42726;SDS011;28372;56.832;60.658;2023-05-10T01:05:17;42.40;;;21.02;;
42726;SDS011;28372;56.832;60.658;2023-05-10T01:07:44;40.15;;;20.60;;
42726;SDS011;28372;56.832;60.658;2023-05-10T01:10:12;42.10;;;20.75;;
42726;SDS011;28372;56.832;60.658;2023-05-10T01:12:41;49.00;;;19.98;;
42726;SDS011;28372;56.832;60.658;2023-05-10T01:15:11;43.90;;;20.65;;
42726;SDS011;28372;56.832;60.658;2023-05-10T01:17:40;52.13;;;21.67;;
42726;SDS011;28372;56.832;60.658;2023-05-10T01:20:11;46.17;;;21.20;;
42726;SDS011;28372;56.832;60.658;2023-05-10T01:31:06;54.97;;;24.15;;
42726;SDS011;28372;56.832;60.658;2023-05-10T01:41:40;48.95;;;24.02;;
42726;SDS011;28372;56.832;60.658;2023-05-10T01:49:42;60.72;;;25.83;;
42726;SDS011;28372;56.832;60.658;2023-05-10T01:52:15;55.00;;;25.67;;
42726;SDS011;28372;56.832;60.658;2023-05-10T01:54:50;53.67;;;24.55;;
42726;SDS011;28372;56.832;60.658;2023-05-10T01:57:24;53.97;;;24.55;;
42726;SDS011;28372;56.832;60.658;2023-05-10T01:59:55;51.20;;;24.10;;
42726;SDS011;28372;56.832;60.658;2023-05-10T02:02:25;48.75;;;23.50;;
42726;SDS011;28372;56.832;60.658;2023-05-10T02:04:54;49.30;;;23.73;;
42726;SDS011;28372;56.832;60.658;2023-05-10T02:07:24;51.05;;;21.50;;
42726;SDS011;28372;56.832;60.658;2023-05-10T02:09:53;52.03;;;23.05;;
42726;SDS011;28372;56.832;60.658;2023-05-10T02:12:22;47.72;;;22.92;;
42726;SDS011;28372;56.832;60.658;2023-05-10T02:14:52;49.15;;;23.73;;
42726;SDS011;28372;56.832;60.658;2023-05-10T02:17:22;47.05;;;22.85;;
42726;SDS011;28372;56.832;60.658;2023-05-10T02:19:51;45.95;;;21.75;;
42726;SDS011;28372;56.832;60.658;2023-05-10T02:22:21;46.28;;;21.92;;
42726;SDS011;28372;56.832;60.658;2023-05-10T02:24:51;43.50;;;22.42;;
42726;SDS011;28372;56.832;60.658;2023-05-10T02:27:21;47.13;;;21.25;;
42726;SDS011;28372;56.832;60.658;2023-05-10T02:29:50;46.95;;;21.65;;
42726;SDS011;28372;56.832;60.658;2023-05-10T02:32:21;42.33;;;20.08;;
42726;SDS011;28372;56.832;60.658;2023-05-10T02:34:51;47.15;;;21.05;;
42726;SDS011;28372;56.832;60.658;2023-05-10T02:37:20;38.85;;;20.67;;
42726;SDS011;28372;56.832;60.658;2023-05-10T02:39:49;42.42;;;20.73;;
42726;SDS011;28372;56.832;60.658;2023-05-10T02:42:19;47.53;;;21.90;;
42726;SDS011;28372;56.832;60.658;2023-05-10T02:44:56;42.25;;;20.77;;
42726;SDS011;28372;56.832;60.658;2023-05-10T02:47:30;42.17;;;20.30;;
42726;SDS011;28372;56.832;60.658;2023-05-10T02:49:58;41.83;;;19.92;;
42726;SDS011;28372;56.832;60.658;2023-05-10T02:52:27;44.25;;;19.45;;
42726;SDS011;28372;56.832;60.658;2023-05-10T02:55:00;34.63;;;19.02;;
42726;SDS011;28372;56.832;60.658;2023-05-10T02:57:33;36.75;;;18.35;;
42726;SDS011;28372;56.832;60.658;2023-05-10T03:00:03;39.22;;;18.08;;
42726;SDS011;28372;56.832;60.658;2023-05-10T03:02:31;33.13;;;18.33;;
42726;SDS011;28372;56.832;60.658;2023-05-10T03:04:59;36.33;;;18.60;;
42726;SDS011;28372;56.832;60.658;2023-05-10T03:07:29;34.40;;;17.95;;
42726;SDS011;28372;56.832;60.658;2023-05-10T03:09:58;37.80;;;18.58;;
42726;SDS011;28372;56.832;60.658;2023-05-10T03:18:29;39.72;;;18.88;;
42726;SDS011;28372;56.832;60.658;2023-05-10T03:21:07;40.30;;;18.77;;
42726;SDS011;28372;56.832;60.658;2023-05-10T03:23:41;37.22;;;18.65;;
42726;SDS011;28372;56.832;60.658;2023-05-10T03:26:23;42.80;;;20.38;;
42726;SDS011;28372;56.832;60.658;2023-05-10T03:29:01;36.42;;;19.92;;
42726;SDS011;28372;56.832;60.658;2023-05-10T03:31:30;43.80;;;21.75;;
42726;SDS011;28372;56.832;60.658;2023-05-10T03:33:59;49.63;;;23.83;;
42726;SDS011;28372;56.832;60.658;2023-05-10T03:36:26;46.20;;;22.17;;
42726;SDS011;28372;56.832;60.658;2023-05-10T03:38:55;45.45;;;22.48;;
42726;SDS011;28372;56.832;60.658;2023-05-10T03:41:23;41.15;;;20.83;;
42726;SDS011;28372;56.832;60.658;2023-05-10T03:43:53;39.00;;;20.80;;
42726;SDS011;28372;56.832;60.658;2023-05-10T03:46:21;39.60;;;21.15;;
42726;SDS011;28372;56.832;60.658;2023-05-10T03:48:49;41.97;;;21.85;;
42726;SDS011;28372;56.832;60.658;2023-05-10T03:51:17;36.42;;;21.05;;
42726;SDS011;28372;56.832;60.658;2023-05-10T03:53:44;40.90;;;21.35;;
42726;SDS011;28372;56.832;60.658;2023-05-10T03:56:12;41.03;;;22.27;;
42726;SDS011;28372;56.832;60.658;2023-05-10T03:58:39;37.90;;;21.00;;
42726;SDS011;28372;56.832;60.658;2023-05-10T04:01:07;32.58;;;21.00;;
42726;SDS011;28372;56.832;60.658;2023-05-10T04:03:34;32.20;;;19.75;;
42726;SDS011;28372;56.832;60.658;2023-05-10T04:06:04;34.38;;;21.77;;
42726;SDS011;28372;56.832;60.658;2023-05-10T04:08:32;38.65;;;19.70;;
42726;SDS011;28372;56.832;60.658;2023-05-10T04:11:07;31.92;;;18.45;;
42726;SDS011;28372;56.832;60.658;2023-05-10T04:13:38;34.80;;;20.60;;
42726;SDS011;28372;56.832;60.658;2023-05-10T04:16:05;36.28;;;20.00;;
42726;SDS011;28372;56.832;60.658;2023-05-10T04:18:33;32.22;;;21.15;;
42726;SDS011;28372;56.832;60.658;2023-05-10T04:21:01;29.70;;;19.02;;
42726;SDS011;28372;56.832;60.658;2023-05-10T04:23:28;34.15;;;21.05;;
42726;SDS011;28372;56.832;60.658;2023-05-10T04:25:59;33.53;;;19.45;;
42726;SDS011;28372;56.832;60.658;2023-05-10T04:28:27;32.67;;;19.35;;
42726;SDS011;28372;56.832;60.658;2023-05-10T04:31:01;32.67;;;20.05;;
42726;SDS011;28372;56.832;60.658;2023-05-10T04:33:32;31.27;;;19.80;;
42726;SDS011;28372;56.832;60.658;2023-05-10T04:36:00;29.08;;;17.35;;
42726;SDS011;28372;56.832;60.658;2023-05-10T04:38:29;30.73;;;20.08;;
42726;SDS011;28372;56.832;60.658;2023-05-10T04:41:09;35.13;;;21.75;;
42726;SDS011;28372;56.832;60.658;2023-05-10T04:43:37;31.00;;;19.92;;
42726;SDS011;28372;56.832;60.658;2023-05-10T04:46:05;34.33;;;21.38;;
42726;SDS011;28372;56.832;60.658;2023-05-10T04:48:34;38.13;;;22.90;;
42726;SDS011;28372;56.832;60.658;2023-05-10T04:51:01;35.92;;;22.33;;
42726;SDS011;28372;56.832;60.658;2023-05-10T04:53:30;34.55;;;21.70;;
42726;SDS011;28372;56.832;60.658;2023-05-10T04:55:58;32.15;;;19.80;;
42726;SDS011;28372;56.832;60.658;2023-05-10T04:58:25;26.80;;;18.42;;
42726;SDS011;28372;56.832;60.658;2023-05-10T05:00:53;22.80;;;15.50;;
42726;SDS011;28372;56.832;60.658;2023-05-10T05:03:20;24.80;;;16.10;;
42726;SDS011;28372;56.832;60.658;2023-05-10T05:05:49;25.48;;;15.50;;
42726;SDS011;28372;56.832;60.658;2023-05-10T05:08:16;21.55;;;13.80;;
42726;SDS011;28372;56.832;60.658;2023-05-10T05:10:44;22.58;;;14.07;;
42726;SDS011;28372;56.832;60.658;2023-05-10T05:13:12;25.30;;;13.55;;
42726;SDS011;28372;56.832;60.658;2023-05-10T05:15:40;16.30;;;9.85;;
42726;SDS011;28372;56.832;60.658;2023-05-10T05:18:08;19.42;;;11.02;;
42726;SDS011;28372;56.832;60.658;2023-05-10T05:20:35;18.23;;;11.70;;
42726;SDS011;28372;56.832;60.658;2023-05-10T05:23:03;22.17;;;14.20;;
42726;SDS011;28372;56.832;60.658;2023-05-10T05:25:30;20.25;;;13.88;;
42726;SDS011;28372;56.832;60.658;2023-05-10T05:27:58;18.58;;;11.77;;
42726;SDS011;28372;56.832;60.658;2023-05-10T05:30:25;21.08;;;12.57;;
42726;SDS011;28372;56.832;60.658;2023-05-10T05:32:53;20.02;;;12.50;;
42726;SDS011;28372;56.832;60.658;2023-05-10T05:35:21;22.33;;;13.15;;
42726;SDS011;28372;56.832;60.658;2023-05-10T05:37:49;19.17;;;12.68;;
42726;SDS011;28372;56.832;60.658;2023-05-10T05:40:17;20.20;;;12.30;;
42726;SDS011;28372;56.832;60.658;2023-05-10T05:42:45;15.73;;;10.73;;
42726;SDS011;28372;56.832;60.658;2023-05-10T05:45:13;15.07;;;10.40;;
42726;SDS011;28372;56.832;60.658;2023-05-10T05:47:41;15.13;;;9.55;;
42726;SDS011;28372;56.832;60.658;2023-05-10T05:50:09;19.00;;;10.50;;
42726;SDS011;28372;56.832;60.658;2023-05-10T05:52:37;16.23;;;11.70;;
42726;SDS011;28372;56.832;60.658;2023-05-10T05:55:04;17.50;;;12.85;;
42726;SDS011;28372;56.832;60.658;2023-05-10T05:57:32;19.92;;;13.23;;
42726;SDS011;28372;56.832;60.658;2023-05-10T05:59:59;22.38;;;15.85;;
42726;SDS011;28372;56.832;60.658;2023-05-10T06:02:38;18.33;;;14.25;;
42726;SDS011;28372;56.832;60.658;2023-05-10T06:05:06;18.30;;;12.40;;
42726;SDS011;28372;56.832;60.658;2023-05-10T06:07:34;17.48;;;12.77;;
42726;SDS011;28372;56.832;60.658;2023-05-10T06:10:01;19.98;;;14.70;;
42726;SDS011;28372;56.832;60.658;2023-05-10T06:12:29;22.50;;;15.55;;
42726;SDS011;28372;56.832;60.658;2023-05-10T06:14:57;25.98;;;18.60;;
42726;SDS011;28372;56.832;60.658;2023-05-10T06:17:24;23.48;;;18.13;;
42726;SDS011;28372;56.832;60.658;2023-05-10T06:19:52;22.90;;;15.38;;
42726;SDS011;28372;56.832;60.658;2023-05-10T06:22:20;24.48;;;15.13;;
42726;SDS011;28372;56.832;60.658;2023-05-10T06:24:49;19.17;;;15.43;;
42726;SDS011;28372;56.832;60.658;2023-05-10T06:27:16;20.25;;;14.20;;
42726;SDS011;28372;56.832;60.658;2023-05-10T06:29:44;17.38;;;13.63;;
42726;SDS011;28372;56.832;60.658;2023-05-10T06:32:11;19.00;;;12.85;;
42726;SDS011;28372;56.832;60.658;2023-05-10T06:34:39;18.50;;;12.60;;
42726;SDS011;28372;56.832;60.658;2023-05-10T06:37:06;17.30;;;13.10;;
42726;SDS011;28372;56.832;60.658;2023-05-10T06:39:34;18.58;;;12.65;;
42726;SDS011;28372;56.832;60.658;2023-05-10T06:42:01;15.88;;;12.27;;
42726;SDS011;28372;56.832;60.658;2023-05-10T06:44:32;12.63;;;9.48;;
42726;SDS011;28372;56.832;60.658;2023-05-10T06:46:59;14.95;;;9.40;;
42726;SDS011;28372;56.832;60.658;2023-05-10T06:49:27;15.70;;;9.30;;
42726;SDS011;28372;56.832;60.658;2023-05-10T06:51:57;13.70;;;9.18;;
42726;SDS011;28372;56.832;60.658;2023-05-10T06:54:25;15.68;;;10.02;;
42726;SDS011;28372;56.832;60.658;2023-05-10T06:56:52;12.38;;;9.35;;
42726;SDS011;28372;56.832;60.658;2023-05-10T06:59:20;14.18;;;10.30;;
42726;SDS011;28372;56.832;60.658;2023-05-10T07:01:48;15.77;;;10.68;;
42726;SDS011;28372;56.832;60.658;2023-05-10T07:04:16;16.35;;;10.25;;
42726;SDS011;28372;56.832;60.658;2023-05-10T07:06:44;14.70;;;9.80;;
42726;SDS011;28372;56.832;60.658;2023-05-10T07:09:13;15.45;;;9.77;;
42726;SDS011;28372;56.832;60.658;2023-05-10T07:11:41;15.88;;;9.35;;
42726;SDS011;28372;56.832;60.658;2023-05-10T07:14:08;15.43;;;9.90;;
42726;SDS011;28372;56.832;60.658;2023-05-10T07:16:36;14.05;;;8.52;;
42726;SDS011;28372;56.832;60.658;2023-05-10T07:19:04;15.95;;;9.93;;
42726;SDS011;28372;56.832;60.658;2023-05-10T07:21:32;16.17;;;10.20;;
42726;SDS011;28372;56.832;60.658;2023-05-10T07:23:59;17.27;;;9.90;;
42726;SDS011;28372;56.832;60.658;2023-05-10T07:26:27;16.13;;;10.68;;
42726;SDS011;28372;56.832;60.658;2023-05-10T07:28:55;18.83;;;10.32;;
42726;SDS011;28372;56.832;60.658;2023-05-10T07:31:23;16.73;;;10.60;;
42726;SDS011;28372;56.832;60.658;2023-05-10T07:33:50;19.08;;;12.80;;
42726;SDS011;28372;56.832;60.658;2023-05-10T07:36:18;17.88;;;12.70;;
42726;SDS011;28372;56.832;60.658;2023-05-10T07:38:45;17.15;;;12.30;;
42726;SDS011;28372;56.832;60.658;2023-05-10T07:41:13;15.75;;;12.30;;
42726;SDS011;28372;56.832;60.658;2023-05-10T07:43:41;19.33;;;12.00;;
42726;SDS011;28372;56.832;60.658;2023-05-10T07:46:08;17.92;;;12.20;;
42726;SDS011;28372;56.832;60.658;2023-05-10T07:48:37;17.10;;;12.23;;
42726;SDS011;28372;56.832;60.658;2023-05-10T07:51:04;18.13;;;12.48;;
42726;SDS011;28372;56.832;60.658;2023-05-10T07:53:34;16.92;;;12.73;;
42726;SDS011;28372;56.832;60.658;2023-05-10T07:58:56;18.58;;;12.15;;
42726;SDS011;28372;56.832;60.658;2023-05-10T08:01:24;16.73;;;12.23;;
42726;SDS011;28372;56.832;60.658;2023-05-10T08:03:52;19.35;;;11.80;;
42726;SDS011;28372;56.832;60.658;2023-05-10T08:06:20;16.38;;;12.15;;
42726;SDS011;28372;56.832;60.658;2023-05-10T08:08:49;16.27;;;12.60;;
42726;SDS011;28372;56.832;60.658;2023-05-10T08:11:17;16.92;;;12.73;;
42726;SDS011;28372;56.832;60.658;2023-05-10T08:13:45;19.38;;;13.95;;
42726;SDS011;28372;56.832;60.658;2023-05-10T08:16:14;18.58;;;14.50;;
42726;SDS011;28372;56.832;60.658;2023-05-10T08:18:43;17.77;;;14.15;;
42726;SDS011;28372;56.832;60.658;2023-05-10T08:21:12;20.40;;;13.27;;
42726;SDS011;28372;56.832;60.658;2023-05-10T08:23:40;19.88;;;13.85;;
42726;SDS011;28372;56.832;60.658;2023-05-10T08:26:08;19.50;;;14.38;;
42726;SDS011;28372;56.832;60.658;2023-05-10T08:28:35;18.77;;;13.80;;
42726;SDS011;28372;56.832;60.658;2023-05-10T08:31:03;19.77;;;14.23;;
42726;SDS011;28372;56.832;60.658;2023-05-10T08:33:32;19.02;;;13.85;;
42726;SDS011;28372;56.832;60.658;2023-05-10T08:35:59;18.13;;;13.10;;
42726;SDS011;28372;56.832;60.658;2023-05-10T08:38:27;20.67;;;14.02;;
42726;SDS011;28372;56.832;60.658;2023-05-10T08:40:54;21.25;;;15.18;;
42726;SDS011;28372;56.832;60.658;2023-05-10T08:43:28;21.48;;;14.55;;
42726;SDS011;28372;56.832;60.658;2023-05-10T08:45:59;19.92;;;14.73;;
42726;SDS011;28372;56.832;60.658;2023-05-10T08:48:28;22.90;;;16.92;;
42726;SDS011;28372;56.832;60.658;2023-05-10T08:50:58;24.40;;;17.80;;
42726;SDS011;28372;56.832;60.658;2023-05-10T08:53:28;39.90;;;28.35;;
42726;SDS011;28372;56.832;60.658;2023-05-10T08:56:00;36.22;;;26.08;;
42726;SDS011;28372;56.832;60.658;2023-05-10T08:58:29;31.80;;;21.15;;
42726;SDS011;28372;56.832;60.658;2023-05-10T09:00:57;26.58;;;18.75;;
42726;SDS011;28372;56.832;60.658;2023-05-10T09:03:26;30.25;;;22.20;;
42726;SDS011;28372;56.832;60.658;2023-05-10T09:05:53;34.67;;;25.25;;
42726;SDS011;28372;56.832;60.658;2023-05-10T09:08:23;31.48;;;22.58;;
42726;SDS011;28372;56.832;60.658;2023-05-10T09:10:54;33.63;;;22.67;;
42726;SDS011;28372;56.832;60.658;2023-05-10T09:13:22;30.42;;;24.00;;
42726;SDS011;28372;56.832;60.658;2023-05-10T09:15:51;34.58;;;25.00;;
42726;SDS011;28372;56.832;60.658;2023-05-10T09:18:20;35.05;;;26.55;;
42726;SDS011;28372;56.832;60.658;2023-05-10T09:20:47;34.72;;;25.15;;
42726;SDS011;28372;56.832;60.658;2023-05-10T09:23:15;33.33;;;24.48;;
42726;SDS011;28372;56.832;60.658;2023-05-10T09:25:43;36.88;;;26.73;;
42726;SDS011;28372;56.832;60.658;2023-05-10T09:28:11;36.53;;;26.75;;
42726;SDS011;28372;56.832;60.658;2023-05-10T09:30:38;37.88;;;27.05;;
42726;SDS011;28372;56.832;60.658;2023-05-10T09:33:06;38.63;;;28.45;;
42726;SDS011;28372;56.832;60.658;2023-05-10T09:35:34;38.67;;;28.25;;
42726;SDS011;28372;56.832;60.658;2023-05-10T09:38:03;41.33;;;29.45;;
42726;SDS011;28372;56.832;60.658;2023-05-10T09:40:32;38.72;;;29.02;;
42726;SDS011;28372;56.832;60.658;2023-05-10T09:43:00;41.58;;;31.27;;
42726;SDS011;28372;56.832;60.658;2023-05-10T09:45:30;40.67;;;29.65;;
42726;SDS011;28372;56.832;60.658;2023-05-10T09:48:03;37.78;;;27.98;;
42726;SDS011;28372;56.832;60.658;2023-05-10T09:50:31;41.30;;;28.30;;
42726;SDS011;28372;56.832;60.658;2023-05-10T09:53:00;37.22;;;26.50;;
42726;SDS011;28372;56.832;60.658;2023-05-10T09:55:43;40.65;;;29.75;;
42726;SDS011;28372;56.832;60.658;2023-05-10T09:58:13;42.40;;;29.75;;
42726;SDS011;28372;56.832;60.658;2023-05-10T10:00:44;41.22;;;33.45;;
42726;SDS011;28372;56.832;60.658;2023-05-10T10:03:19;43.20;;;32.25;;
42726;SDS011;28372;56.832;60.658;2023-05-10T10:05:48;40.00;;;28.13;;
42726;SDS011;28372;56.832;60.658;2023-05-10T10:08:17;45.53;;;32.05;;
42726;SDS011;28372;56.832;60.658;2023-05-10T10:10:44;46.00;;;32.05;;
42726;SDS011;28372;56.832;60.658;2023-05-10T10:13:13;42.95;;;32.10;;
42726;SDS011;28372;56.832;60.658;2023-05-10T10:15:42;44.05;;;31.55;;
42726;SDS011;28372;56.832;60.658;2023-05-10T10:18:14;44.50;;;29.80;;
42726;SDS011;28372;56.832;60.658;2023-05-10T10:20:42;42.85;;;31.00;;
42726;SDS011;28372;56.832;60.658;2023-05-10T10:23:09;45.90;;;32.38;;
42726;SDS011;28372;56.832;60.658;2023-05-10T10:25:37;43.75;;;29.88;;
42726;SDS011;28372;56.832;60.658;2023-05-10T10:28:16;42.70;;;30.17;;
42726;SDS011;28372;56.832;60.658;2023-05-10T10:30:54;41.88;;;30.20;;
42726;SDS011;28372;56.832;60.658;2023-05-10T10:33:38;43.33;;;27.77;;
42726;SDS011;28372;56.832;60.658;2023-05-10T10:36:18;38.88;;;29.30;;
42726;SDS011;28372;56.832;60.658;2023-05-10T10:42:14;40.30;;;28.92;;
42726;SDS011;28372;56.832;60.658;2023-05-10T10:44:23;40.92;;;28.30;;
42726;SDS011;28372;56.832;60.658;2023-05-10T10:47:04;39.13;;;25.67;;
42726;SDS011;28372;56.832;60.658;2023-05-10T10:54:46;43.28;;;28.67;;
42726;SDS011;28372;56.832;60.658;2023-05-10T10:57:21;41.00;;;30.10;;
42726;SDS011;28372;56.832;60.658;2023-05-10T10:59:49;43.70;;;28.35;;
42726;SDS011;28372;56.832;60.658;2023-05-10T11:02:32;42.70;;;28.33;;
42726;SDS011;28372;56.832;60.658;2023-05-10T11:08:07;37.88;;;27.63;;
42726;SDS011;28372;56.832;60.658;2023-05-10T11:10:35;38.60;;;25.60;;
42726;SDS011;28372;56.832;60.658;2023-05-10T11:13:06;38.63;;;26.48;;
42726;SDS011;28372;56.832;60.658;2023-05-10T11:15:36;39.15;;;26.05;;
42726;SDS011;28372;56.832;60.658;2023-05-10T11:18:23;38.65;;;26.95;;
42726;SDS011;28372;56.832;60.658;2023-05-10T11:20:55;45.17;;;30.20;;
42726;SDS011;28372;56.832;60.658;2023-05-10T11:26:23;42.50;;;30.85;;
42726;SDS011;28372;56.832;60.658;2023-05-10T11:28:53;43.40;;;29.58;;
42726;SDS011;28372;56.832;60.658;2023-05-10T11:31:25;41.38;;;28.42;;
42726;SDS011;28372;56.832;60.658;2023-05-10T11:33:54;42.00;;;28.83;;
42726;SDS011;28372;56.832;60.658;2023-05-10T11:36:25;41.60;;;27.75;;
42726;SDS011;28372;56.832;60.658;2023-05-10T11:38:55;41.67;;;28.60;;
42726;SDS011;28372;56.832;60.658;2023-05-10T11:41:30;42.78;;;28.58;;
42726;SDS011;28372;56.832;60.658;2023-05-10T11:43:58;38.83;;;26.55;;
42726;SDS011;28372;56.832;60.658;2023-05-10T11:46:26;41.60;;;27.33;;
42726;SDS011;28372;56.832;60.658;2023-05-10T11:48:57;44.15;;;28.52;;
42726;SDS011;28372;56.832;60.658;2023-05-10T11:51:33;41.88;;;28.23;;
42726;SDS011;28372;56.832;60.658;2023-05-10T11:54:06;42.42;;;27.95;;
42726;SDS011;28372;56.832;60.658;2023-05-10T11:56:39;41.75;;;28.65;;
42726;SDS011;28372;56.832;60.658;2023-05-10T11:59:07;42.08;;;28.52;;
42726;SDS011;28372;56.832;60.658;2023-05-10T12:01:35;41.88;;;27.38;;
42726;SDS011;28372;56.832;60.658;2023-05-10T12:04:03;45.50;;;29.75;;
42726;SDS011;28372;56.832;60.658;2023-05-10T12:06:37;42.38;;;27.85;;
42726;SDS011;28372;56.832;60.658;2023-05-10T12:09:07;41.70;;;27.80;;
42726;SDS011;28372;56.832;60.658;2023-05-10T12:11:36;45.25;;;29.23;;
42726;SDS011;28372;56.832;60.658;2023-05-10T12:14:10;42.42;;;27.08;;
42726;SDS011;28372;56.832;60.658;2023-05-10T12:16:38;41.38;;;28.50;;
42726;SDS011;28372;56.832;60.658;2023-05-10T12:19:05;39.40;;;26.85;;
42726;SDS011;28372;56.832;60.658;2023-05-10T12:21:33;40.25;;;25.95;;
42726;SDS011;28372;56.832;60.658;2023-05-10T12:24:02;38.75;;;26.90;;
42726;SDS011;28372;56.832;60.658;2023-05-10T12:26:34;43.85;;;29.92;;
42726;SDS011;28372;56.832;60.658;2023-05-10T12:29:12;44.20;;;30.33;;
42726;SDS011;28372;56.832;60.658;2023-05-10T12:31:50;45.35;;;29.10;;
42726;SDS011;28372;56.832;60.658;2023-05-10T12:34:23;44.35;;;28.65;;
42726;SDS011;28372;56.832;60.658;2023-05-10T12:37:09;41.65;;;27.83;;
42726;SDS011;28372;56.832;60.658;2023-05-10T12:39:40;42.00;;;27.35;;
42726;SDS011;28372;56.832;60.658;2023-05-10T12:42:09;42.05;;;28.45;;
42726;SDS011;28372;56.832;60.658;2023-05-10T12:44:37;37.90;;;26.75;;
42726;SDS011;28372;56.832;60.658;2023-05-10T12:47:05;40.05;;;26.15;;
42726;SDS011;28372;56.832;60.658;2023-05-10T12:49:33;38.45;;;26.63;;
42726;SDS011;28372;56.832;60.658;2023-05-10T12:52:01;40.38;;;26.13;;
42726;SDS011;28372;56.832;60.658;2023-05-10T12:54:28;40.92;;;27.30;;
42726;SDS011;28372;56.832;60.658;2023-05-10T12:56:56;38.45;;;27.75;;
42726;SDS011;28372;56.832;60.658;2023-05-10T12:59:23;38.40;;;27.50;;
42726;SDS011;28372;56.832;60.658;2023-05-10T13:01:51;38.50;;;26.33;;
42726;SDS011;28372;56.832;60.658;2023-05-10T13:04:19;39.28;;;26.30;;
42726;SDS011;28372;56.832;60.658;2023-05-10T13:06:46;37.55;;;25.45;;
42726;SDS011;28372;56.832;60.658;2023-05-10T13:09:14;38.05;;;25.95;;
42726;SDS011;28372;56.832;60.658;2023-05-10T13:11:42;39.47;;;26.25;;
42726;SDS011;28372;56.832;60.658;2023-05-10T13:14:09;42.63;;;29.00;;
42726;SDS011;28372;56.832;60.658;2023-05-10T13:16:37;41.58;;;28.30;;
42726;SDS011;28372;56.832;60.658;2023-05-10T13:19:04;46.00;;;28.50;;
42726;SDS011;28372;56.832;60.658;2023-05-10T13:21:32;43.72;;;26.80;;
42726;SDS011;28372;56.832;60.658;2023-05-10T13:24:00;43.58;;;27.40;;
42726;SDS011;28372;56.832;60.658;2023-05-10T13:26:28;44.83;;;28.63;;
42726;SDS011;28372;56.832;60.658;2023-05-10T13:28:55;44.42;;;28.75;;
42726;SDS011;28372;56.832;60.658;2023-05-10T13:31:23;40.28;;;26.00;;
42726;SDS011;28372;56.832;60.658;2023-05-10T13:33:51;44.15;;;27.33;;
42726;SDS011;28372;56.832;60.658;2023-05-10T13:36:18;42.25;;;26.20;;
42726;SDS011;28372;56.832;60.658;2023-05-10T13:38:46;40.13;;;26.48;;
42726;SDS011;28372;56.832;60.658;2023-05-10T13:41:13;41.13;;;27.92;;
42726;SDS011;28372;56.832;60.658;2023-05-10T13:43:41;45.67;;;29.10;;
42726;SDS011;28372;56.832;60.658;2023-05-10T13:46:08;45.78;;;28.17;;
42726;SDS011;28372;56.832;60.658;2023-05-10T13:48:36;46.20;;;28.48;;
42726;SDS011;28372;56.832;60.658;2023-05-10T13:51:04;50.13;;;29.85;;
42726;SDS011;28372;56.832;60.658;2023-05-10T13:53:32;44.97;;;31.15;;
42726;SDS011;28372;56.832;60.658;2023-05-10T13:56:00;51.38;;;32.92;;
42726;SDS011;28372;56.832;60.658;2023-05-10T13:58:29;56.33;;;35.35;;
42726;SDS011;28372;56.832;60.658;2023-05-10T14:00:56;49.80;;;33.22;;
42726;SDS011;28372;56.832;60.658;2023-05-10T14:03:24;54.58;;;35.80;;
42726;SDS011;28372;56.832;60.658;2023-05-10T14:05:51;56.83;;;37.47;;
42726;SDS011;28372;56.832;60.658;2023-05-10T14:08:19;57.20;;;36.22;;
42726;SDS011;28372;56.832;60.658;2023-05-10T14:10:47;56.95;;;35.70;;
42726;SDS011;28372;56.832;60.658;2023-05-10T14:13:15;57.75;;;35.35;;
42726;SDS011;28372;56.832;60.658;2023-05-10T14:15:43;52.10;;;35.10;;
42726;SDS011;28372;56.832;60.658;2023-05-10T14:18:10;54.33;;;34.00;;
42726;SDS011;28372;56.832;60.658;2023-05-10T14:20:38;55.40;;;37.20;;
42726;SDS011;28372;56.832;60.658;2023-05-10T14:23:05;50.63;;;33.55;;
42726;SDS011;28372;56.832;60.658;2023-05-10T14:25:36;56.15;;;35.55;;
42726;SDS011;28372;56.832;60.658;2023-05-10T14:28:04;52.90;;;34.47;;
42726;SDS011;28372;56.832;60.658;2023-05-10T14:30:32;57.63;;;34.55;;
42726;SDS011;28372;56.832;60.658;2023-05-10T14:33:03;63.42;;;39.10;;
42726;SDS011;28372;56.832;60.658;2023-05-10T14:35:31;55.90;;;33.10;;
42726;SDS011;28372;56.832;60.658;2023-05-10T14:37:58;52.67;;;34.72;;
42726;SDS011;28372;56.832;60.658;2023-05-10T14:40:26;56.35;;;34.42;;
42726;SDS011;28372;56.832;60.658;2023-05-10T14:42:53;60.47;;;35.03;;
42726;SDS011;28372;56.832;60.658;2023-05-10T14:45:21;56.60;;;33.83;;
42726;SDS011;28372;56.832;60.658;2023-05-10T14:47:49;54.08;;;34.58;;
42726;SDS011;28372;56.832;60.658;2023-05-10T14:50:17;57.10;;;35.55;;
42726;SDS011;28372;56.832;60.658;2023-05-10T14:53:01;58.95;;;35.17;;
42726;SDS011;28372;56.832;60.658;2023-05-10T14:55:29;57.25;;;36.13;;
42726;SDS011;28372;56.832;60.658;2023-05-10T14:57:57;52.97;;;33.63;;
42726;SDS011;28372;56.832;60.658;2023-05-10T15:00:25;59.50;;;37.30;;
42726;SDS011;28372;56.832;60.658;2023-05-10T15:02:55;55.05;;;34.35;;
42726;SDS011;28372;56.832;60.658;2023-05-10T15:05:23;58.80;;;34.53;;